createdAt,value
2022-11-13T00:01:18.406Z,4.70
2022-11-13T00:03:45.388Z,4.38
2022-11-13T00:06:13.305Z,4.20
2022-11-13T00:08:40.109Z,4.28
2022-11-13T00:11:12.696Z,4.65
2022-11-13T00:13:39.467Z,4.97
2022-11-13T00:16:09.732Z,4.43
2022-11-13T00:18:36.959Z,4.32
2022-11-13T00:21:16.856Z,4.72
2022-11-13T00:23:43.683Z,5.65
2022-11-13T00:26:13.920Z,7.45
2022-11-13T00:28:40.421Z,6.70
2022-11-13T00:31:08.984Z,6.18
2022-11-13T00:34:02.374Z,5.10
2022-11-13T00:36:26.548Z,4.88
2022-11-13T00:38:54.080Z,5.15
2022-11-13T00:41:21.079Z,5.15
2022-11-13T00:43:47.552Z,4.95
2022-11-13T00:46:15.589Z,5.10
2022-11-13T00:48:42.095Z,4.80
2022-11-13T00:51:08.675Z,4.65
2022-11-13T00:53:35.312Z,4.50
2022-11-13T00:56:01.843Z,4.30
2022-11-13T00:58:28.797Z,4.65
2022-11-13T01:00:55.926Z,4.32
2022-11-13T01:03:22.390Z,4.47
2022-11-13T01:05:48.950Z,4.75
2022-11-13T01:08:16.379Z,5.00
2022-11-13T01:10:53.116Z,4.70
2022-11-13T01:13:20.698Z,4.18
2022-11-13T01:15:47.243Z,4.75
2022-11-13T01:18:13.891Z,4.80
2022-11-13T01:20:40.640Z,4.22
2022-11-13T01:23:07.179Z,4.82
2022-11-13T01:25:33.926Z,4.20
2022-11-13T01:28:03.746Z,4.78
2022-11-13T01:30:30.281Z,3.90
2022-11-13T01:32:56.720Z,4.28
2022-11-13T01:35:23.265Z,4.13
2022-11-13T01:37:49.711Z,3.80
2022-11-13T01:40:16.508Z,4.88
2022-11-13T01:42:46.131Z,4.10
2022-11-13T01:45:50.299Z,4.30
2022-11-13T01:48:16.780Z,4.15
2022-11-13T01:50:43.314Z,4.07
2022-11-13T01:53:10.104Z,3.95
2022-11-13T01:55:36.836Z,3.85
2022-11-13T01:58:06.050Z,3.90
2022-11-13T02:00:32.585Z,3.47
2022-11-13T02:02:59.138Z,3.55
2022-11-13T02:05:25.630Z,3.90
2022-11-13T02:07:52.276Z,3.58
2022-11-13T02:10:18.817Z,3.67
2022-11-13T02:12:50.235Z,3.50
2022-11-13T02:15:18.744Z,3.90
2022-11-13T02:17:50.298Z,3.20
2022-11-13T02:20:25.444Z,3.47
2022-11-13T02:22:54.659Z,3.33
2022-11-13T02:25:22.176Z,3.63
2022-11-13T02:27:50.512Z,3.30
2022-11-13T02:30:26.486Z,3.42
2022-11-13T02:32:55.048Z,2.97
2022-11-13T02:35:26.563Z,3.17
2022-11-13T02:37:54.839Z,2.83
2022-11-13T02:40:21.484Z,2.95
2022-11-13T02:42:47.939Z,3.05
2022-11-13T02:45:14.606Z,3.33
2022-11-13T02:47:41.101Z,2.58
2022-11-13T02:50:10.220Z,2.70
2022-11-13T02:52:37.000Z,2.80
2022-11-13T02:55:04.458Z,2.70
2022-11-13T02:57:31.088Z,2.67
2022-11-13T02:59:57.770Z,2.70
2022-11-13T03:02:24.305Z,2.60
2022-11-13T03:05:11.396Z,2.80
2022-11-13T03:07:37.324Z,2.60
2022-11-13T03:10:04.209Z,2.67
2022-11-13T03:12:30.833Z,2.47
2022-11-13T03:14:57.361Z,2.60
2022-11-13T03:17:23.828Z,2.25
2022-11-13T03:19:50.438Z,2.40
2022-11-13T03:22:16.970Z,2.30
2022-11-13T03:24:46.816Z,2.08
2022-11-13T03:27:13.268Z,2.20
2022-11-13T03:29:39.770Z,1.90
2022-11-13T03:32:06.405Z,2.00
2022-11-13T03:34:32.875Z,2.10
2022-11-13T03:36:59.360Z,2.10
2022-11-13T03:39:26.311Z,2.28
2022-11-13T03:41:52.809Z,2.15
2022-11-13T03:44:19.308Z,2.20
2022-11-13T03:46:45.845Z,2.38
2022-11-13T03:49:12.467Z,2.20
2022-11-13T03:51:38.975Z,1.90
2022-11-13T03:54:05.518Z,2.00
2022-11-13T03:56:32.092Z,2.08
2022-11-13T03:58:58.574Z,2.10
2022-11-13T04:01:25.146Z,2.00
2022-11-13T04:03:51.663Z,2.00
2022-11-13T04:06:18.165Z,2.20
2022-11-13T04:08:44.623Z,2.00
2022-11-13T04:11:12.898Z,2.20
2022-11-13T04:13:39.609Z,2.33
2022-11-13T04:16:06.316Z,2.10
2022-11-13T04:18:33.107Z,2.30
2022-11-13T04:21:04.938Z,2.53
2022-11-13T04:23:31.592Z,2.33
2022-11-13T04:25:58.333Z,2.08
2022-11-13T04:28:24.975Z,2.00
2022-11-13T04:30:54.586Z,1.90
2022-11-13T04:33:21.409Z,1.38
2022-11-13T04:35:48.504Z,2.00
2022-11-13T04:38:15.607Z,1.60
2022-11-13T04:40:43.100Z,1.83
2022-11-13T04:43:09.774Z,1.73
2022-11-13T04:45:36.953Z,1.35
2022-11-13T04:48:03.721Z,1.60
2022-11-13T04:50:30.340Z,1.40
2022-11-13T04:52:56.899Z,1.35
2022-11-13T04:55:23.441Z,1.50
2022-11-13T04:57:51.703Z,1.33
2022-11-13T05:00:18.512Z,1.30
2022-11-13T05:02:45.015Z,1.55
2022-11-13T05:05:11.506Z,1.50
2022-11-13T05:07:38.077Z,1.60
2022-11-13T05:10:05.553Z,1.50
2022-11-13T05:12:31.985Z,1.50
2022-11-13T05:14:58.517Z,1.45
2022-11-13T05:17:24.959Z,1.52
2022-11-13T05:19:51.536Z,1.50
2022-11-13T05:22:17.985Z,1.30
2022-11-13T05:24:44.596Z,1.23
2022-11-13T05:27:16.010Z,1.35
2022-11-13T05:29:43.759Z,1.10
2022-11-13T05:32:10.297Z,1.27
2022-11-13T05:34:36.989Z,1.17
2022-11-13T05:37:03.475Z,1.17
2022-11-13T05:39:29.964Z,1.30
2022-11-13T05:41:56.468Z,1.08
2022-11-13T05:44:22.965Z,2.10
2022-11-13T05:46:49.478Z,1.50
2022-11-13T05:49:15.967Z,1.83
2022-11-13T05:51:42.478Z,1.80
2022-11-13T05:54:08.937Z,1.92
2022-11-13T05:56:36.704Z,1.38
2022-11-13T05:59:04.432Z,1.85
2022-11-13T06:01:37.007Z,1.50
2022-11-13T06:04:04.583Z,1.40
2022-11-13T06:06:31.704Z,1.23
2022-11-13T06:09:00.646Z,1.60
2022-11-13T06:11:29.241Z,1.30
2022-11-13T06:13:57.222Z,1.52
2022-11-13T06:16:27.033Z,1.52
2022-11-13T06:18:58.942Z,1.67
2022-11-13T06:21:29.756Z,1.88
2022-11-13T06:24:00.624Z,2.20
2022-11-13T06:26:33.174Z,2.00
2022-11-13T06:29:01.485Z,2.60
2022-11-13T06:31:30.993Z,2.80
2022-11-13T06:34:00.429Z,2.50
2022-11-13T06:36:30.109Z,3.05
2022-11-13T06:38:56.807Z,3.45
2022-11-13T06:41:26.014Z,3.03
2022-11-13T06:43:53.317Z,2.88
2022-11-13T06:46:23.451Z,2.92
2022-11-13T06:48:50.694Z,3.17
2022-11-13T06:51:27.160Z,2.70
2022-11-13T06:53:54.106Z,2.33
2022-11-13T06:56:21.467Z,2.28
2022-11-13T06:58:47.981Z,2.13
2022-11-13T07:01:20.902Z,2.30
2022-11-13T07:03:47.710Z,2.60
2022-11-13T07:06:24.444Z,2.17
2022-11-13T07:08:51.754Z,2.30
2022-11-13T07:11:21.172Z,2.22
2022-11-13T07:13:48.292Z,2.03
2022-11-13T07:16:17.803Z,2.58
2022-11-13T07:18:50.376Z,2.45
2022-11-13T07:21:17.254Z,2.33
2022-11-13T07:23:43.821Z,2.47
2022-11-13T07:26:13.736Z,2.78
2022-11-13T07:28:40.567Z,3.15
2022-11-13T07:31:07.539Z,6.47
2022-11-13T07:33:34.582Z,6.85
2022-11-13T07:36:01.350Z,5.85
2022-11-13T07:38:28.168Z,5.00
2022-11-13T07:40:54.949Z,4.32
2022-11-13T07:43:21.491Z,4.10
2022-11-13T07:45:54.281Z,4.18
2022-11-13T07:48:24.497Z,3.67
2022-11-13T07:50:51.476Z,4.55
2022-11-13T07:53:19.282Z,3.70
2022-11-13T07:55:46.326Z,5.40
2022-11-13T07:58:12.891Z,7.07
2022-11-13T08:00:40.158Z,5.30
2022-11-13T08:03:08.925Z,4.80
2022-11-13T08:05:35.530Z,5.35
2022-11-13T08:08:02.078Z,5.00
2022-11-13T08:10:28.905Z,6.05
2022-11-13T08:13:04.154Z,5.95
2022-11-13T08:15:31.713Z,5.85
2022-11-13T08:17:59.891Z,5.78
2022-11-13T08:20:28.023Z,6.40
2022-11-13T08:23:02.269Z,6.70
2022-11-13T08:25:29.956Z,7.55
2022-11-13T08:27:57.340Z,8.13
2022-11-13T08:30:25.901Z,8.35
2022-11-13T08:32:52.828Z,8.05
2022-11-13T08:35:21.371Z,8.40
2022-11-13T08:37:50.630Z,7.50
2022-11-13T08:40:20.022Z,7.78
2022-11-13T08:42:46.523Z,7.88
2022-11-13T08:45:13.132Z,7.90
2022-11-13T08:47:39.659Z,8.32
2022-11-13T08:50:06.787Z,8.25
2022-11-13T08:52:33.351Z,8.10
2022-11-13T08:54:59.879Z,7.68
2022-11-13T08:57:28.898Z,7.60
2022-11-13T08:59:55.404Z,7.55
2022-11-13T09:02:21.924Z,7.35
2022-11-13T09:04:48.392Z,7.15
2022-11-13T09:07:15.087Z,8.25
2022-11-13T09:09:41.563Z,8.13
2022-11-13T09:12:08.217Z,8.32
2022-11-13T09:14:36.144Z,8.93
2022-11-13T09:17:03.035Z,9.15
2022-11-13T09:19:29.542Z,9.15
2022-11-13T09:21:56.003Z,9.30
2022-11-13T09:24:22.539Z,8.93
2022-11-13T09:26:49.035Z,9.32
2022-11-13T09:29:15.550Z,8.90
2022-11-13T09:31:42.247Z,9.13
2022-11-13T09:34:08.974Z,8.65
2022-11-13T09:36:36.139Z,9.15
2022-11-13T09:39:04.345Z,8.63
2022-11-13T09:41:37.649Z,9.25
2022-11-13T09:44:13.554Z,9.00
2022-11-13T09:46:49.354Z,8.60
2022-11-13T09:49:21.621Z,9.65
2022-11-13T09:51:52.813Z,9.38
2022-11-13T09:54:20.318Z,9.53
2022-11-13T09:56:51.245Z,9.48
2022-11-13T10:00:10.592Z,10.55
2022-11-13T10:02:44.404Z,10.93
2022-11-13T10:05:41.191Z,11.40
2022-11-13T10:08:16.578Z,12.07
2022-11-13T10:11:07.072Z,12.20
2022-11-13T10:13:40.414Z,12.23
2022-11-13T10:16:38.484Z,11.82
2022-11-13T10:19:28.252Z,11.55
2022-11-13T10:22:26.512Z,12.35
2022-11-13T10:24:52.210Z,12.55
2022-11-13T10:27:19.014Z,11.75
2022-11-13T10:29:49.048Z,10.98
2022-11-13T10:32:22.102Z,11.73
2022-11-13T10:34:54.285Z,12.35
2022-11-13T10:37:45.112Z,12.48
2022-11-13T10:40:11.809Z,12.75
2022-11-13T10:42:41.225Z,13.40
2022-11-13T10:45:20.155Z,14.20
2022-11-13T10:48:04.087Z,15.18
2022-11-13T10:50:32.528Z,15.75
2022-11-13T10:53:02.431Z,14.85
2022-11-13T10:55:37.468Z,15.73
2022-11-13T10:58:13.091Z,16.15
2022-11-13T11:00:41.469Z,16.58
2022-11-13T11:03:14.004Z,16.10
2022-11-13T11:06:01.091Z,16.90
2022-11-13T11:08:37.136Z,17.73
2022-11-13T11:11:33.409Z,17.30
2022-11-13T11:14:24.361Z,19.50
2022-11-13T11:16:52.754Z,18.02
2022-11-13T11:19:24.915Z,20.17
2022-11-13T11:21:57.349Z,19.13
2022-11-13T11:24:31.037Z,20.25
2022-11-13T11:27:04.910Z,19.05
2022-11-13T11:29:46.324Z,18.77
2022-11-13T11:32:34.202Z,19.23
2022-11-13T11:35:12.088Z,19.90
2022-11-13T11:37:50.396Z,21.02
2022-11-13T11:40:21.940Z,20.85
2022-11-13T11:43:00.870Z,20.23
2022-11-13T11:45:31.583Z,22.15
2022-11-13T11:47:59.483Z,21.60
2022-11-13T11:50:54.597Z,19.58
2022-11-13T11:53:50.329Z,21.50
2022-11-13T11:56:34.632Z,21.60
2022-11-13T11:59:22.998Z,22.98
2022-11-13T12:02:08.178Z,24.08
2022-11-13T12:05:10.400Z,24.77
2022-11-13T12:07:48.948Z,23.70
2022-11-13T12:10:57.040Z,25.73
2022-11-13T12:13:31.547Z,24.80
2022-11-13T12:16:13.120Z,27.23
2022-11-13T12:18:57.646Z,28.27
2022-11-13T12:22:07.083Z,28.85
2022-11-13T12:24:39.412Z,27.80
2022-11-13T12:27:25.765Z,30.10
2022-11-13T12:30:10.913Z,28.70
2022-11-13T12:32:43.391Z,30.05
2022-11-13T12:35:21.039Z,30.55
2022-11-13T12:37:51.593Z,33.25
2022-11-13T12:40:50.583Z,30.35
2022-11-13T12:43:44.735Z,31.88
2022-11-13T12:46:12.657Z,32.42
2022-11-13T12:48:45.040Z,33.42
2022-11-13T12:51:14.609Z,33.55
2022-11-13T12:53:52.309Z,33.63
2022-11-13T12:56:24.774Z,31.35
2022-11-13T12:59:28.652Z,30.23
2022-11-13T13:01:49.342Z,31.35
2022-11-13T13:05:13.324Z,32.47
2022-11-13T13:07:45.900Z,31.52
2022-11-13T13:10:41.195Z,31.75
2022-11-13T13:13:31.711Z,29.38
2022-11-13T13:16:07.349Z,27.50
2022-11-13T13:18:36.787Z,27.05
2022-11-13T13:21:04.215Z,26.27
2022-11-13T13:23:39.791Z,24.13
2022-11-13T13:26:15.377Z,26.38
2022-11-13T13:29:01.051Z,26.23
2022-11-13T13:31:30.430Z,25.48
2022-11-13T13:34:21.212Z,25.48
2022-11-13T13:37:01.461Z,24.13
2022-11-13T13:39:52.282Z,23.73
2022-11-13T13:42:43.678Z,24.50
2022-11-13T13:45:25.936Z,22.93
2022-11-13T13:47:54.887Z,25.48
2022-11-13T13:50:31.632Z,26.65
2022-11-13T13:52:59.659Z,26.17
2022-11-13T13:55:33.960Z,27.35
2022-11-13T13:58:05.683Z,26.02
2022-11-13T14:02:59.342Z,25.08
2022-11-13T14:05:35.014Z,25.17
2022-11-13T14:08:07.387Z,26.95
2022-11-13T14:10:36.273Z,26.10
2022-11-13T14:13:03.945Z,27.45
2022-11-13T14:15:32.655Z,26.10
2022-11-13T14:18:05.426Z,28.63
2022-11-13T14:20:43.803Z,25.92
2022-11-13T14:23:23.031Z,27.25
2022-11-13T14:25:50.256Z,28.88
2022-11-13T14:28:22.702Z,29.38
2022-11-13T14:31:07.949Z,26.65
2022-11-13T14:33:40.694Z,28.65
2022-11-13T14:36:07.506Z,29.65
2022-11-13T14:38:36.929Z,27.85
2022-11-13T14:41:04.480Z,26.92
2022-11-13T14:43:33.146Z,25.75
2022-11-13T14:46:02.079Z,26.30
2022-11-13T14:48:31.380Z,27.63
2022-11-13T14:51:05.987Z,23.55
2022-11-13T14:53:35.666Z,25.20
2022-11-13T14:56:04.862Z,27.02
2022-11-13T14:58:36.737Z,27.65
2022-11-13T15:01:15.526Z,26.85
2022-11-13T15:03:43.766Z,24.98
2022-11-13T15:06:26.993Z,27.63
2022-11-13T15:08:58.241Z,24.98
2022-11-13T15:11:26.500Z,23.30
2022-11-13T15:13:53.110Z,22.60
2022-11-13T15:16:23.569Z,23.13
2022-11-13T15:18:54.216Z,21.80
2022-11-13T15:21:20.932Z,24.25
2022-11-13T15:23:47.432Z,23.75
2022-11-13T15:26:13.950Z,25.92
2022-11-13T15:28:40.467Z,26.05
2022-11-13T15:31:20.657Z,24.00
2022-11-13T15:33:48.046Z,23.63
2022-11-13T15:36:14.865Z,26.55
2022-11-13T15:38:41.434Z,24.77
2022-11-13T15:41:12.806Z,25.20
2022-11-13T15:43:45.018Z,23.45
2022-11-13T15:46:17.351Z,24.45
2022-11-13T15:48:44.971Z,25.05
2022-11-13T15:51:33.727Z,23.60
2022-11-13T15:54:03.711Z,26.98
2022-11-13T15:56:31.485Z,26.50
2022-11-13T15:58:57.988Z,24.75
2022-11-13T16:01:24.620Z,27.90
2022-11-13T16:03:51.707Z,28.63
2022-11-13T16:06:21.563Z,25.98
2022-11-13T16:08:48.606Z,28.40
2022-11-13T16:11:17.009Z,31.42
2022-11-13T16:13:43.780Z,31.05
2022-11-13T16:16:16.792Z,28.90
2022-11-13T16:18:43.293Z,28.38
2022-11-13T16:21:14.159Z,29.38
2022-11-13T16:23:40.755Z,26.77
2022-11-13T16:26:18.035Z,26.75
2022-11-13T16:29:07.650Z,26.45
2022-11-13T16:31:31.209Z,27.55
2022-11-13T16:33:57.640Z,27.00
2022-11-13T16:36:27.247Z,28.17
2022-11-13T16:38:53.712Z,27.90
2022-11-13T16:41:20.218Z,28.95
2022-11-13T16:43:46.676Z,28.08
2022-11-13T16:46:21.036Z,29.13
2022-11-13T16:48:48.014Z,28.65
2022-11-13T16:51:17.106Z,28.42
2022-11-13T16:53:43.920Z,27.23
2022-11-13T16:56:16.274Z,27.10
2022-11-13T16:58:42.962Z,27.98
2022-11-13T17:01:19.959Z,25.55
2022-11-13T17:03:46.516Z,26.27
2022-11-13T17:06:21.010Z,28.58
2022-11-13T17:08:51.816Z,28.50
2022-11-13T17:11:18.889Z,27.67
2022-11-13T17:14:02.162Z,28.90
2022-11-13T17:16:30.437Z,29.50
2022-11-13T17:18:58.133Z,29.95
2022-11-13T17:21:28.328Z,28.35
2022-11-13T17:24:02.472Z,27.95
2022-11-13T17:26:30.975Z,29.52
2022-11-13T17:28:59.866Z,30.98
2022-11-13T17:31:26.768Z,26.80
2022-11-13T17:33:54.094Z,30.48
2022-11-13T17:36:21.392Z,31.52
2022-11-13T17:38:48.364Z,31.17
2022-11-13T17:41:16.496Z,31.17
2022-11-13T17:43:43.418Z,29.23
2022-11-13T17:46:15.386Z,29.25
2022-11-13T17:48:43.109Z,29.63
2022-11-13T17:51:14.792Z,29.85
2022-11-13T17:53:41.649Z,27.98
2022-11-13T17:56:11.663Z,29.17
2022-11-13T17:58:39.903Z,30.88
2022-11-13T18:01:10.286Z,29.88
2022-11-13T18:03:36.901Z,31.17
2022-11-13T18:06:08.443Z,29.70
2022-11-13T18:08:37.626Z,28.23
2022-11-13T18:11:09.622Z,29.33
2022-11-13T18:16:10.287Z,25.60
2022-11-13T18:18:36.947Z,26.15
2022-11-13T18:21:23.406Z,25.45
2022-11-13T18:24:03.957Z,25.40
2022-11-13T18:26:31.644Z,25.88
2022-11-13T18:28:58.680Z,28.00
2022-11-13T18:31:25.349Z,27.63
2022-11-13T18:33:52.760Z,31.55
2022-11-13T18:36:19.651Z,30.52
2022-11-13T18:38:46.441Z,33.03
2022-11-13T18:41:15.757Z,33.50
2022-11-13T18:43:44.242Z,36.80
2022-11-13T18:46:12.235Z,38.63
2022-11-13T18:48:40.404Z,38.20
2022-11-13T18:51:15.568Z,36.88
2022-11-13T18:53:45.506Z,37.05
2022-11-13T18:56:15.575Z,39.72
2022-11-13T18:58:43.757Z,38.35
2022-11-13T19:01:22.349Z,37.03
2022-11-13T19:04:16.150Z,38.58
2022-11-13T19:06:38.307Z,40.10
2022-11-13T19:09:08.073Z,38.85
2022-11-13T19:11:34.564Z,38.28
2022-11-13T19:14:01.040Z,37.95
2022-11-13T19:16:33.172Z,39.65
2022-11-13T19:19:03.579Z,42.03
2022-11-13T19:21:31.834Z,40.88
2022-11-13T19:23:58.698Z,41.17
2022-11-13T19:26:26.129Z,42.53
2022-11-13T19:28:53.938Z,42.35
2022-11-13T19:31:22.912Z,44.47
2022-11-13T19:34:00.544Z,42.13
2022-11-13T19:36:28.631Z,40.53
2022-11-13T19:38:56.330Z,40.67
2022-11-13T19:41:23.930Z,37.67
2022-11-13T19:43:50.512Z,38.17
2022-11-13T19:46:18.501Z,37.17
2022-11-13T19:48:48.611Z,36.83
2022-11-13T19:51:17.976Z,37.58
2022-11-13T19:53:47.581Z,36.15
2022-11-13T19:56:16.389Z,40.75
2022-11-13T19:58:44.476Z,40.72
2022-11-13T20:01:13.742Z,40.25
2022-11-13T20:03:40.380Z,38.80
2022-11-13T20:06:08.064Z,40.22
2022-11-13T20:08:41.138Z,38.17
2022-11-13T20:11:10.972Z,34.13
2022-11-13T20:13:38.766Z,31.92
2022-11-13T20:16:06.765Z,32.50
2022-11-13T20:18:33.320Z,32.67
2022-11-13T20:21:00.367Z,34.00
2022-11-13T20:23:30.479Z,33.70
2022-11-13T20:26:05.300Z,34.25
2022-11-13T20:28:32.299Z,32.80
2022-11-13T20:31:16.469Z,33.30
2022-11-13T20:33:43.569Z,32.97
2022-11-13T20:36:10.457Z,33.25
2022-11-13T20:38:37.435Z,34.05
2022-11-13T20:41:05.045Z,31.20
2022-11-13T20:43:31.534Z,32.15
2022-11-13T20:46:09.201Z,32.47
2022-11-13T20:48:36.284Z,31.58
2022-11-13T20:51:10.868Z,31.17
2022-11-13T20:53:37.593Z,32.10
2022-11-13T20:56:04.552Z,32.08
2022-11-13T20:58:31.789Z,31.02
2022-11-13T21:01:07.001Z,31.77
2022-11-13T21:03:39.901Z,31.98
2022-11-13T21:06:10.004Z,33.42
2022-11-13T21:08:36.614Z,31.70
2022-11-13T21:11:06.015Z,33.30
2022-11-13T21:13:33.249Z,32.35
2022-11-13T21:15:59.787Z,31.92
2022-11-13T21:18:26.596Z,33.20
2022-11-13T21:20:53.332Z,33.38
2022-11-13T21:23:19.833Z,32.88
2022-11-13T21:25:46.358Z,32.22
2022-11-13T21:28:12.849Z,32.55
2022-11-13T21:30:39.315Z,32.17
2022-11-13T21:33:05.796Z,31.05
2022-11-13T21:35:32.324Z,31.75
2022-11-13T21:37:58.892Z,33.95
2022-11-13T21:40:25.363Z,33.75
2022-11-13T21:42:51.871Z,31.25
2022-11-13T21:45:18.341Z,32.42
2022-11-13T21:47:44.854Z,32.75
2022-11-13T21:50:11.384Z,31.25
2022-11-13T21:52:37.912Z,33.90
2022-11-13T21:55:04.696Z,36.78
2022-11-13T21:57:31.377Z,37.72
2022-11-13T21:59:57.863Z,36.95
2022-11-13T22:02:24.464Z,36.00
2022-11-13T22:04:50.991Z,36.45
2022-11-13T22:07:19.433Z,34.17
2022-11-13T22:09:46.462Z,36.08
2022-11-13T22:12:18.009Z,35.58
2022-11-13T22:14:47.428Z,35.40
2022-11-13T22:17:13.866Z,34.67
2022-11-13T22:19:40.429Z,36.65
2022-11-13T22:22:06.907Z,35.30
2022-11-13T22:24:33.458Z,35.17
2022-11-13T22:27:02.872Z,34.67
2022-11-13T22:29:29.380Z,34.50
2022-11-13T22:31:55.845Z,35.35
2022-11-13T22:34:22.346Z,32.40
2022-11-13T22:36:48.807Z,34.92
2022-11-13T22:39:15.385Z,32.83
2022-11-13T22:41:41.828Z,33.80
2022-11-13T22:44:12.462Z,33.47
2022-11-13T22:46:39.110Z,35.58
2022-11-13T22:49:09.308Z,35.30
2022-11-13T22:51:38.464Z,35.85
2022-11-13T22:54:14.921Z,36.25
2022-11-13T22:56:44.291Z,35.58
2022-11-13T22:59:12.281Z,36.45
2022-11-13T23:01:40.281Z,38.67
2022-11-13T23:04:12.010Z,36.53
2022-11-13T23:06:38.616Z,37.47
2022-11-13T23:09:06.448Z,38.08
2022-11-13T23:11:40.313Z,38.78
2022-11-13T23:14:13.719Z,36.30
2022-11-13T23:16:40.282Z,35.50
2022-11-13T23:19:06.981Z,36.53
2022-11-13T23:21:33.678Z,35.22
2022-11-13T23:24:03.763Z,35.35
2022-11-13T23:26:30.318Z,35.00
2022-11-13T23:28:57.182Z,40.28
2022-11-13T23:31:24.386Z,38.35
2022-11-13T23:33:58.280Z,40.30
2022-11-13T23:36:24.814Z,39.35
2022-11-13T23:38:51.267Z,39.72
2022-11-13T23:41:17.768Z,38.38
2022-11-13T23:46:30.683Z,36.65
2022-11-13T23:48:57.255Z,36.03
2022-11-13T23:51:23.747Z,36.33
2022-11-13T23:53:50.183Z,36.90
2022-11-13T23:56:18.603Z,36.00
2022-11-13T23:58:45.081Z,36.38
